Time;durP1;ratioP1;P1;durP2;ratioP2;P2;SDS_P1;SDS_P2;PMS_P1;PMS_P2;Temp;Humidity;BMP_temperature;BMP_pressure;BME280_temperature;BME280_humidity;BME280_pressure;Samples;Min_cycle;Max_cycle;Signal;HPM_P1;HPM_P2
2021/06/06 00:01:40;;;;;;;5.97;5.50;;;17.40;96.40;;;;;;4977972;28;20448;-61
2021/06/06 00:04:25;;;;;;;6.73;6.13;;;17.50;96.50;;;;;;4976714;28;20451;-61
2021/06/06 00:07:08;;;;;;;11.57;7.90;;;17.30;96.70;;;;;;4978335;28;20420;-61
2021/06/06 00:09:35;;;;;;;7.57;6.80;;;17.20;97.00;;;;;;4986361;28;20418;-61
2021/06/06 00:12:03;;;;;;;6.63;6.03;;;17.20;97.10;;;;;;4977142;28;20822;-62
2021/06/06 00:14:34;;;;;;;8.10;7.30;;;17.10;97.40;;;;;;4977359;28;20469;-62
2021/06/06 00:17:06;;;;;;;7.23;6.57;;;16.80;98.00;;;;;;4978313;28;20476;-62
2021/06/06 00:19:33;;;;;;;8.33;7.20;;;16.80;98.30;;;;;;4973381;28;20789;-61
2021/06/06 00:22:00;;;;;;;7.30;6.70;;;16.70;98.50;;;;;;4968533;28;20483;-61
2021/06/06 00:24:31;;;;;;;7.20;6.60;;;16.70;98.70;;;;;;4975617;28;20468;-62
2021/06/06 00:26:59;;;;;;;7.20;6.60;;;16.60;98.90;;;;;;4967635;28;20425;-62
2021/06/06 00:29:27;;;;;;;7.47;5.63;;;16.40;99.30;;;;;;4977736;28;20421;-62
2021/06/06 00:31:55;;;;;;;6.60;6.03;;;16.40;99.40;;;;;;4971576;28;20417;-61
2021/06/06 00:34:23;;;;;;;6.53;5.97;;;16.70;98.90;;;;;;4973624;28;20464;-62
2021/06/06 00:36:50;;;;;;;7.77;6.77;;;16.60;98.90;;;;;;4972884;28;20608;-61
2021/06/06 00:39:18;;;;;;;6.23;5.73;;;16.50;99.20;;;;;;4976486;28;20446;-62
2021/06/06 00:41:48;;;;;;;7.40;6.77;;;16.40;99.50;;;;;;4978494;28;20459;-61
2021/06/06 00:44:16;;;;;;;6.97;6.37;;;16.60;99.20;;;;;;4975667;28;20688;-60
2021/06/06 00:46:43;;;;;;;5.83;5.33;;;16.50;99.30;;;;;;4977302;28;20445;-60
2021/06/06 00:49:11;;;;;;;8.10;7.20;;;16.40;99.50;;;;;;4974173;28;20619;-60
2021/06/06 00:51:47;;;;;;;8.00;7.17;;;16.50;99.50;;;;;;5008748;28;20454;-62
2021/06/06 00:54:23;;;;;;;6.10;5.37;;;16.40;99.70;;;;;;4974485;28;20775;-61
2021/06/06 00:56:57;;;;;;;6.43;5.93;;;16.30;99.90;;;;;;4969689;28;20444;-61
2021/06/06 00:59:26;;;;;;;6.43;5.90;;;16.50;99.60;;;;;;4973431;28;20426;-61
2021/06/06 01:01:54;;;;;;;8.00;6.90;;;16.50;99.70;;;;;;4977172;28;20476;-61
2021/06/06 01:04:22;;;;;;;7.13;6.53;;;16.40;99.90;;;;;;4969196;28;20499;-62
2021/06/06 01:06:52;;;;;;;7.20;6.27;;;16.50;99.90;;;;;;4977318;28;20454;-61
2021/06/06 01:09:22;;;;;;;9.27;6.73;;;16.40;99.90;;;;;;4971930;28;20440;-61
2021/06/06 01:11:57;;;;;;;6.47;5.87;;;16.30;99.90;;;;;;4969959;28;20505;-61
2021/06/06 01:14:53;;;;;;;6.20;5.60;;;16.30;99.90;;;;;;4972530;28;20454;-60
2021/06/06 01:17:36;;;;;;;5.40;5.00;;;16.20;99.90;;;;;;4976354;28;20443;-59
2021/06/06 01:20:28;;;;;;;6.80;6.20;;;16.10;99.90;;;;;;4973893;28;20482;-61
2021/06/06 01:23:08;;;;;;;7.83;7.13;;;16.10;99.90;;;;;;4974516;28;20415;-61
2021/06/06 01:25:44;;;;;;;6.93;6.23;;;15.90;99.90;;;;;;4971087;28;20598;-60
2021/06/06 01:28:16;;;;;;;7.77;7.07;;;15.90;99.90;;;;;;4979098;28;20424;-61
2021/06/06 01:30:50;;;;;;;7.30;6.60;;;15.90;99.90;;;;;;4974131;28;20488;-60
2021/06/06 01:33:47;;;;;;;7.00;6.35;;;16.00;99.90;;;;;;4979657;28;20207;-60
2021/06/06 01:36:25;;;;;;;9.00;6.97;;;15.90;99.90;;;;;;4980343;28;20238;-60
2021/06/06 01:39:08;;;;;;;7.20;6.60;;;15.90;99.90;;;;;;4975214;28;20567;-60
2021/06/06 01:41:43;;;;;;;12.00;7.70;;;15.80;99.90;;;;;;4980197;28;20232;-62
2021/06/06 01:44:13;;;;;;;8.15;7.35;;;15.80;99.90;;;;;;4979838;28;20233;-60
2021/06/06 01:46:53;;;;;;;8.40;7.65;;;15.60;99.90;;;;;;4972934;28;20255;-60
2021/06/06 01:49:21;;;;;;;13.73;8.88;;;15.50;99.90;;;;;;4976549;28;20214;-62
2021/06/06 01:51:54;;;;;;;7.22;6.53;;;15.40;99.90;;;;;;4979554;28;20433;-61
2021/06/06 01:54:26;;;;;;;7.65;7.03;;;15.30;99.90;;;;;;4968254;28;20666;-61
2021/06/06 01:56:54;;;;;;;8.23;7.43;;;15.40;99.90;;;;;;4975598;28;20239;-61
2021/06/06 01:59:34;;;;;;;7.68;7.00;;;15.40;99.90;;;;;;4976925;28;20420;-62
2021/06/06 02:02:03;;;;;;;9.05;8.10;;;15.40;99.90;;;;;;4972112;28;20629;-61
2021/06/06 02:04:33;;;;;;;7.85;7.07;;;15.20;99.90;;;;;;4969062;28;20265;-61
2021/06/06 02:07:03;;;;;;;8.55;7.75;;;15.20;99.90;;;;;;4972544;28;20513;-61
2021/06/06 02:09:42;;;;;;;10.48;8.73;;;15.00;99.90;;;;;;4973442;28;20527;-59
2021/06/06 02:12:12;;;;;;;8.68;7.88;;;15.00;99.90;;;;;;4972940;28;20521;-60
2021/06/06 02:14:43;;;;;;;8.93;8.10;;;15.10;99.90;;;;;;4978642;28;20206;-60
2021/06/06 02:17:29;;;;;;;8.43;7.20;;;15.10;99.90;;;;;;4980504;28;20534;-61
2021/06/06 02:19:58;;;;;;;10.35;7.45;;;15.00;99.90;;;;;;4977269;28;20215;-60
2021/06/06 02:22:28;;;;;;;7.32;6.78;;;15.00;99.90;;;;;;4980197;28;20210;-60
2021/06/06 02:24:55;;;;;;;8.55;7.85;;;15.00;99.90;;;;;;4973823;28;20208;-61
2021/06/06 02:28:10;;;;;;;7.68;6.95;;;15.00;99.90;;;;;;4972929;28;20516;-61
2021/06/06 02:31:18;;;;;;;9.15;8.25;;;14.90;99.90;;;;;;4977849;28;20277;-61
2021/06/06 02:33:53;;;;;;;9.55;7.40;;;14.90;99.90;;;;;;4973867;28;20206;-61
2021/06/06 02:36:22;;;;;;;9.70;8.90;;;14.90;99.90;;;;;;4969089;28;20242;-60
2021/06/06 02:39:17;;;;;;;11.48;7.82;;;14.90;99.90;;;;;;4979953;28;20273;-59
2021/06/06 02:42:06;;;;;;;9.27;8.48;;;14.80;99.90;;;;;;4970294;28;20561;-59
2021/06/06 02:44:48;;;;;;;10.25;8.57;;;14.90;99.90;;;;;;4974170;28;20265;-61
2021/06/06 02:47:22;;;;;;;9.40;8.15;;;14.80;99.90;;;;;;4977102;28;20206;-60
2021/06/06 02:49:50;;;;;;;8.82;8.02;;;14.80;99.90;;;;;;4977868;28;20213;-60
2021/06/06 02:52:41;;;;;;;9.27;8.48;;;14.90;99.90;;;;;;4975220;28;20270;-60
2021/06/06 02:55:28;;;;;;;9.60;8.63;;;14.90;99.90;;;;;;4978300;28;20231;-60
2021/06/06 02:58:00;;;;;;;13.05;9.52;;;14.80;99.90;;;;;;4979618;28;20261;-60
2021/06/06 03:00:44;;;;;;;8.63;7.82;;;15.50;99.90;;;;;;4973007;28;20501;-60
2021/06/06 03:03:28;;;;;;;9.27;8.40;;;14.90;99.90;;;;;;4973068;28;20281;-61
2021/06/06 03:05:58;;;;;;;13.68;9.68;;;14.80;99.90;;;;;;4971673;28;20254;-61
2021/06/06 03:08:25;;;;;;;9.73;8.88;;;14.70;99.90;;;;;;4978322;28;20231;-60
2021/06/06 03:10:55;;;;;;;10.50;9.60;;;14.80;99.90;;;;;;4978544;28;20217;-60
2021/06/06 03:13:31;;;;;;;9.18;8.32;;;15.00;99.90;;;;;;4972270;28;20556;-61
2021/06/06 03:16:01;;;;;;;9.82;8.82;;;15.10;99.90;;;;;;4976132;28;20269;-61
2021/06/06 03:18:32;;;;;;;9.27;8.38;;;15.20;99.90;;;;;;4974104;28;20250;-61
2021/06/06 03:21:10;;;;;;;10.45;9.43;;;15.30;99.90;;;;;;4977354;28;20256;-61
2021/06/06 03:23:39;;;;;;;10.10;9.00;;;15.40;99.90;;;;;;4977801;28;20524;-61
2021/06/06 03:26:10;;;;;;;24.75;10.15;;;15.60;99.90;;;;;;4978466;28;20265;-60
2021/06/06 03:28:40;;;;;;;9.18;8.15;;;15.80;99.90;;;;;;4968610;28;20462;-61
2021/06/06 03:31:23;;;;;;;10.13;8.95;;;16.10;99.90;;;;;;4972805;28;20254;-60
2021/06/06 03:34:01;;;;;;;7.93;7.13;;;16.60;99.90;;;;;;4973275;28;20222;-61
2021/06/06 03:36:41;;;;;;;8.83;7.67;;;17.40;99.90;;;;;;4977007;28;20468;-61
2021/06/06 03:39:15;;;;;;;10.07;8.90;;;18.30;99.90;;;;;;4978795;28;20470;-60
2021/06/06 03:41:43;;;;;;;16.20;8.67;;;19.30;99.40;;;;;;4975045;28;20451;-61
2021/06/06 03:44:10;;;;;;;8.67;7.83;;;20.00;97.90;;;;;;4973785;28;20883;-60
2021/06/06 03:46:38;;;;;;;9.53;8.63;;;20.70;96.50;;;;;;4972719;28;20477;-61
2021/06/06 03:49:07;;;;;;;12.70;8.40;;;21.20;95.40;;;;;;4973661;28;20443;-61
2021/06/06 03:51:35;;;;;;;11.10;8.43;;;21.40;94.50;;;;;;4966617;28;20476;-61
2021/06/06 03:54:04;;;;;;;8.80;8.10;;;21.60;94.00;;;;;;4966475;28;20558;-61
2021/06/06 03:56:31;;;;;;;9.10;8.20;;;21.80;93.70;;;;;;4975431;28;20463;-60
2021/06/06 03:58:58;;;;;;;10.00;9.00;;;22.30;92.90;;;;;;4972143;28;20511;-60
2021/06/06 04:01:25;;;;;;;9.50;8.60;;;22.60;91.80;;;;;;4971958;28;20496;-60
2021/06/06 04:03:53;;;;;;;8.67;7.97;;;21.90;92.00;;;;;;4974837;28;20451;-60
2021/06/06 04:06:20;;;;;;;8.33;7.63;;;21.40;92.60;;;;;;4976790;28;20452;-60
2021/06/06 04:08:47;;;;;;;9.73;8.80;;;20.80;93.70;;;;;;4976049;28;20481;-60
2021/06/06 04:11:14;;;;;;;8.37;7.67;;;20.90;93.70;;;;;;4975725;28;20590;-60
2021/06/06 04:13:41;;;;;;;9.53;8.50;;;20.70;93.70;;;;;;4973659;28;20645;-61
2021/06/06 04:16:08;;;;;;;8.53;7.77;;;20.20;94.40;;;;;;4965142;28;20785;-61
2021/06/06 04:18:36;;;;;;;7.80;7.20;;;19.60;95.30;;;;;;4966398;28;20426;-61
2021/06/06 04:21:07;;;;;;;8.87;8.17;;;19.20;96.60;;;;;;4976548;28;20434;-60
2021/06/06 04:23:36;;;;;;;8.60;7.80;;;19.00;97.10;;;;;;4970986;28;20416;-61
2021/06/06 04:26:03;;;;;;;8.63;7.90;;;18.80;97.20;;;;;;4967371;28;20435;-60
2021/06/06 04:28:31;;;;;;;8.33;7.57;;;18.70;97.20;;;;;;4962636;28;20458;-60
2021/06/06 04:30:58;;;;;;;8.77;7.97;;;18.80;97.20;;;;;;4977075;28;20427;-62
2021/06/06 04:33:26;;;;;;;9.40;8.43;;;18.80;96.90;;;;;;4972693;28;20466;-61
2021/06/06 04:35:53;;;;;;;8.70;7.77;;;18.60;97.00;;;;;;4976794;28;20465;-62
2021/06/06 04:38:24;;;;;;;7.90;7.13;;;18.40;97.30;;;;;;4974697;28;20445;-62
2021/06/06 04:40:52;;;;;;;9.37;8.57;;;18.40;97.60;;;;;;4978076;28;20745;-62
2021/06/06 04:43:20;;;;;;;8.50;7.70;;;18.40;97.20;;;;;;4975647;28;20502;-62
2021/06/06 04:45:48;;;;;;;10.30;9.33;;;18.50;97.60;;;;;;4977860;28;20647;-61
2021/06/06 04:48:42;;;;;;;9.40;8.60;;;18.50;97.20;;;;;;4977513;28;20422;-61
2021/06/06 04:51:18;;;;;;;9.90;9.10;;;18.60;97.20;;;;;;4977048;28;20455;-60
2021/06/06 04:53:50;;;;;;;11.40;8.43;;;18.80;96.80;;;;;;5006742;28;20444;-61
2021/06/06 04:56:20;;;;;;;9.90;9.00;;;18.90;96.80;;;;;;4976847;28;20498;-61
2021/06/06 04:58:47;;;;;;;10.73;9.70;;;18.90;96.70;;;;;;4981459;28;20781;-60
2021/06/06 05:01:14;;;;;;;10.40;9.23;;;18.90;96.80;;;;;;4983818;28;20494;-60
2021/06/06 05:03:42;;;;;;;9.70;8.80;;;18.80;96.90;;;;;;4973220;28;20423;-60
2021/06/06 05:06:10;;;;;;;10.37;9.53;;;18.90;97.10;;;;;;4966954;28;20453;-61
2021/06/06 05:08:37;;;;;;;10.67;9.70;;;19.00;96.50;;;;;;4980451;28;20612;-60
2021/06/06 05:11:05;;;;;;;11.00;10.00;;;19.00;96.40;;;;;;4977533;28;20457;-61
2021/06/06 05:13:32;;;;;;;11.07;9.90;;;19.10;96.80;;;;;;4978857;28;20434;-61
2021/06/06 05:15:59;;;;;;;10.13;9.17;;;19.10;96.60;;;;;;4980669;28;20495;-60
2021/06/06 05:18:27;;;;;;;9.53;8.80;;;19.30;96.70;;;;;;4977422;28;20419;-60
2021/06/06 05:20:56;;;;;;;8.53;7.90;;;19.40;96.50;;;;;;4983087;28;20423;-60
2021/06/06 05:23:25;;;;;;;11.47;10.50;;;19.50;96.20;;;;;;4976016;28;20502;-61
2021/06/06 05:25:53;;;;;;;9.90;8.93;;;19.70;96.40;;;;;;4983926;28;20438;-60
2021/06/06 05:28:27;;;;;;;10.77;9.80;;;19.80;96.00;;;;;;4982918;28;20560;-60
2021/06/06 05:30:55;;;;;;;9.60;8.77;;;19.70;96.10;;;;;;4984056;28;20656;-61
2021/06/06 05:33:23;;;;;;;9.97;9.03;;;19.80;96.30;;;;;;4976468;28;20419;-62
2021/06/06 05:35:50;;;;;;;12.27;11.00;;;19.70;96.20;;;;;;4982713;28;20491;-61
2021/06/06 05:38:20;;;;;;;10.40;9.40;;;19.90;96.00;;;;;;4982517;28;20464;-62
2021/06/06 05:40:47;;;;;;;10.03;9.23;;;20.00;95.90;;;;;;4982023;28;20591;-60
2021/06/06 05:43:17;;;;;;;11.10;10.20;;;20.30;95.70;;;;;;4982422;28;20574;-62
2021/06/06 05:45:48;;;;;;;9.20;8.40;;;20.40;95.30;;;;;;4981968;28;20419;-60
2021/06/06 05:48:16;;;;;;;10.10;9.20;;;20.70;95.40;;;;;;4980979;28;20445;-60
2021/06/06 05:50:47;;;;;;;9.63;8.90;;;20.90;94.90;;;;;;4982862;28;20511;-61
2021/06/06 05:53:15;;;;;;;9.63;8.90;;;21.20;94.30;;;;;;4977412;28;20441;-61
2021/06/06 05:55:44;;;;;;;11.97;10.73;;;21.20;94.30;;;;;;4980898;28;21037;-61
2021/06/06 05:58:13;;;;;;;16.23;11.60;;;21.10;94.50;;;;;;4981546;28;20513;-60
2021/06/06 06:00:44;;;;;;;10.00;9.10;;;21.30;94.20;;;;;;4977883;28;20798;-61
2021/06/06 06:03:12;;;;;;;10.97;9.97;;;21.30;94.20;;;;;;4983685;28;20442;-61
2021/06/06 06:05:39;;;;;;;11.03;9.93;;;21.40;93.90;;;;;;4979241;28;20487;-61
2021/06/06 06:08:28;;;;;;;10.23;9.30;;;21.60;94.10;;;;;;4982961;28;20442;-60
2021/06/06 06:10:57;;;;;;;11.13;10.23;;;22.00;93.60;;;;;;4974633;28;20452;-61
2021/06/06 06:13:27;;;;;;;10.30;9.50;;;22.70;93.10;;;;;;4972829;28;20447;-61
2021/06/06 06:15:55;;;;;;;9.83;9.07;;;23.40;91.20;;;;;;4980059;28;20643;-60
2021/06/06 06:18:24;;;;;;;11.43;10.30;;;23.80;90.80;;;;;;4975635;28;20880;-60
2021/06/06 06:20:53;;;;;;;10.63;9.83;;;24.00;90.30;;;;;;4979541;28;20448;-60
2021/06/06 06:23:20;;;;;;;10.33;9.70;;;24.30;89.70;;;;;;4974756;28;20779;-60
2021/06/06 06:25:48;;;;;;;10.07;9.27;;;25.30;86.40;;;;;;4980256;28;20520;-61
2021/06/06 06:28:15;;;;;;;12.33;11.17;;;26.00;84.00;;;;;;4979101;28;20440;-60
2021/06/06 06:30:42;;;;;;;10.47;9.50;;;25.90;83.80;;;;;;4979510;28;20800;-60
2021/06/06 06:33:09;;;;;;;10.97;10.17;;;25.40;84.70;;;;;;4973191;28;20621;-62
2021/06/06 06:35:37;;;;;;;10.30;9.50;;;24.00;89.20;;;;;;4979315;28;20499;-60
2021/06/06 06:38:06;;;;;;;9.87;9.17;;;23.70;90.00;;;;;;4978064;28;20482;-62
2021/06/06 06:40:34;;;;;;;11.90;10.80;;;23.90;89.60;;;;;;4979023;28;20498;-60
2021/06/06 06:43:02;;;;;;;11.03;10.23;;;24.30;88.30;;;;;;4978948;28;20530;-62
2021/06/06 06:45:32;;;;;;;11.87;11.00;;;24.90;86.20;;;;;;5006762;28;20503;-61
2021/06/06 06:48:01;;;;;;;10.97;10.17;;;25.20;85.30;;;;;;4977024;28;20453;-61
2021/06/06 06:50:29;;;;;;;10.40;9.70;;;25.60;83.20;;;;;;4979238;28;20671;-62
2021/06/06 06:52:57;;;;;;;10.30;9.40;;;26.90;79.20;;;;;;4979348;28;20452;-62
2021/06/06 06:55:24;;;;;;;11.53;10.63;;;27.60;74.90;;;;;;4979136;28;20547;-60
2021/06/06 06:57:54;;;;;;;11.63;10.73;;;27.90;75.00;;;;;;4966721;28;20653;-62
2021/06/06 07:00:30;;;;;;;11.30;10.43;;;27.70;74.50;;;;;;4972200;28;20791;-61
2021/06/06 07:03:01;;;;;;;11.77;10.97;;;29.20;70.00;;;;;;4969770;28;20469;-61
2021/06/06 07:05:28;;;;;;;12.10;11.30;;;29.40;68.50;;;;;;4979311;28;20507;-60
2021/06/06 07:07:56;;;;;;;11.50;10.70;;;31.50;61.40;;;;;;4971268;28;20675;-60
2021/06/06 07:10:26;;;;;;;11.70;10.90;;;32.80;56.70;;;;;;4973088;28;20684;-60
2021/06/06 07:12:53;;;;;;;10.90;10.30;;;33.00;54.80;;;;;;4974318;28;20452;-61
2021/06/06 07:15:20;;;;;;;11.63;10.83;;;31.70;54.50;;;;;;4978437;28;20666;-59
2021/06/06 07:17:48;;;;;;;10.87;10.07;;;31.60;55.50;;;;;;4970785;28;20551;-61
2021/06/06 07:20:20;;;;;;;12.47;11.57;;;33.60;51.60;;;;;;4976003;28;20774;-60
2021/06/06 07:22:47;;;;;;;11.80;11.10;;;35.00;48.60;;;;;;4977563;28;20456;-61
2021/06/06 07:25:16;;;;;;;11.83;11.03;;;32.40;51.40;;;;;;4977460;28;20479;-60
2021/06/06 07:27:44;;;;;;;11.63;10.83;;;33.00;51.20;;;;;;4978435;28;20771;-60
2021/06/06 07:30:16;;;;;;;12.27;11.47;;;33.30;50.70;;;;;;4978383;28;20452;-62
2021/06/06 07:32:43;;;;;;;11.73;11.10;;;31.80;52.80;;;;;;4963091;28;20454;-62
2021/06/06 07:35:12;;;;;;;11.50;10.70;;;33.40;49.90;;;;;;4971008;28;21014;-61
2021/06/06 07:37:40;;;;;;;10.60;10.00;;;35.50;46.70;;;;;;4975264;28;20546;-62
2021/06/06 07:40:09;;;;;;;11.33;10.63;;;35.70;45.00;;;;;;4977654;28;20449;-61
2021/06/06 07:42:36;;;;;;;11.30;10.60;;;34.60;46.20;;;;;;4976268;28;20476;-61
2021/06/06 07:45:04;;;;;;;10.17;9.63;;;34.70;45.90;;;;;;4974125;28;20433;-62
2021/06/06 07:47:31;;;;;;;11.70;10.90;;;35.10;45.40;;;;;;4976740;28;20699;-62
2021/06/06 07:49:59;;;;;;;10.20;9.70;;;35.20;44.50;;;;;;4970003;28;20453;-61
2021/06/06 07:52:26;;;;;;;10.43;9.80;;;34.10;46.00;;;;;;4975021;28;20552;-61
2021/06/06 07:54:53;;;;;;;10.20;9.50;;;34.10;46.20;;;;;;4976106;28;20488;-62
2021/06/06 07:57:20;;;;;;;9.60;9.00;;;35.00;45.10;;;;;;4977821;28;20719;-61
2021/06/06 07:59:47;;;;;;;10.90;10.13;;;34.50;45.60;;;;;;4978166;28;20445;-62
2021/06/06 08:02:14;;;;;;;10.17;9.67;;;35.70;43.30;;;;;;4968403;28;20491;-61
2021/06/06 08:04:42;;;;;;;10.80;10.20;;;35.60;43.00;;;;;;4974612;28;20518;-61
2021/06/06 08:07:09;;;;;;;10.43;9.93;;;35.30;43.10;;;;;;4979401;28;20658;-61
2021/06/06 08:09:35;;;;;;;10.50;9.90;;;37.00;41.20;;;;;;4974991;28;20456;-61
2021/06/06 08:12:03;;;;;;;10.40;9.80;;;37.00;40.80;;;;;;4972973;28;20460;-63
2021/06/06 08:14:30;;;;;;;10.60;10.10;;;37.10;40.40;;;;;;4977103;28;20794;-61
2021/06/06 08:16:58;;;;;;;10.50;9.93;;;36.00;41.60;;;;;;4974678;28;20484;-60
2021/06/06 08:19:25;;;;;;;10.77;10.13;;;37.40;39.40;;;;;;4977567;28;20459;-61
2021/06/06 08:21:53;;;;;;;10.47;9.87;;;37.90;38.30;;;;;;4973358;28;20448;-62
2021/06/06 08:24:20;;;;;;;10.63;10.13;;;36.90;39.30;;;;;;4974032;28;20444;-61
2021/06/06 08:26:47;;;;;;;9.60;9.00;;;37.90;38.20;;;;;;4976774;28;20491;-60
2021/06/06 08:29:14;;;;;;;10.23;9.73;;;38.80;36.40;;;;;;4976588;28;20671;-62
2021/06/06 08:31:44;;;;;;;9.47;9.07;;;39.80;35.90;;;;;;4968457;28;20517;-60
2021/06/06 08:34:11;;;;;;;10.70;10.00;;;39.50;35.50;;;;;;4963227;28;20445;-62
2021/06/06 08:36:45;;;;;;;11.17;10.60;;;36.90;38.50;;;;;;4964667;28;20484;-61
2021/06/06 08:39:21;;;;;;;10.57;9.97;;;36.70;39.40;;;;;;4961442;28;20775;-60
2021/06/06 08:41:55;;;;;;;12.17;11.33;;;35.90;40.20;;;;;;4964764;28;20472;-61
2021/06/06 08:44:33;;;;;;;11.97;11.17;;;35.60;42.00;;;;;;4969716;28;20536;-61
2021/06/06 08:47:03;;;;;;;11.40;10.70;;;37.40;38.50;;;;;;4990392;28;20512;-62
2021/06/06 08:49:40;;;;;;;10.93;10.33;;;37.80;37.50;;;;;;4968109;28;20440;-61
2021/06/06 08:52:17;;;;;;;10.57;10.03;;;37.50;37.90;;;;;;4971758;28;20487;-64
2021/06/06 08:55:33;;;;;;;10.37;9.87;;;36.90;37.20;;;;;;4971988;28;20515;-60
2021/06/06 08:58:18;;;;;;;10.43;9.93;;;38.30;35.90;;;;;;4963272;28;20504;-62
2021/06/06 09:00:52;;;;;;;10.90;10.30;;;40.60;34.70;;;;;;4971241;28;20494;-62
2021/06/06 09:03:25;;;;;;;10.90;10.40;;;42.80;31.00;;;;;;4964475;28;20542;-62
2021/06/06 09:06:03;;;;;;;11.03;10.33;;;40.90;31.90;;;;;;4965442;28;20453;-63
2021/06/06 09:08:33;;;;;;;12.13;11.53;;;39.20;34.50;;;;;;4966093;28;20442;-62
2021/06/06 09:11:06;;;;;;;11.10;10.60;;;35.30;39.60;;;;;;4967980;28;20512;-62
2021/06/06 09:13:33;;;;;;;12.60;11.90;;;34.90;40.40;;;;;;4965699;28;20659;-61
2021/06/06 09:16:09;;;;;;;10.70;10.20;;;36.80;37.40;;;;;;4977641;28;20678;-62
2021/06/06 09:18:37;;;;;;;10.90;10.30;;;36.10;37.60;;;;;;4972073;28;20484;-62
2021/06/06 09:21:19;;;;;;;10.40;9.80;;;35.60;39.40;;;;;;4960759;28;20667;-62
2021/06/06 09:23:51;;;;;;;9.60;9.20;;;36.10;38.30;;;;;;4971723;28;20741;-62
2021/06/06 09:26:18;;;;;;;10.50;9.73;;;36.60;37.70;;;;;;4965566;28;21012;-61
2021/06/06 09:28:48;;;;;;;10.27;9.70;;;36.60;37.30;;;;;;4969902;28;20688;-62
2021/06/06 09:31:15;;;;;;;10.20;9.63;;;36.60;36.80;;;;;;4969133;28;20451;-61
2021/06/06 09:33:57;;;;;;;10.33;9.73;;;35.10;38.90;;;;;;4972544;28;20458;-62
2021/06/06 09:36:39;;;;;;;8.97;8.47;;;33.10;41.80;;;;;;4967544;28;20433;-61
2021/06/06 09:39:18;;;;;;;10.00;9.40;;;30.30;47.00;;;;;;4959980;28;20462;-61
2021/06/06 09:41:49;;;;;;;10.17;9.27;;;28.80;49.40;;;;;;4961978;28;20814;-61
2021/06/06 09:44:25;;;;;;;8.40;7.97;;;27.40;52.60;;;;;;4969759;28;20437;-64
2021/06/06 09:47:04;;;;;;;8.70;8.23;;;27.50;52.00;;;;;;4977184;28;21019;-60
2021/06/06 09:49:36;;;;;;;8.63;8.17;;;27.00;50.50;;;;;;4980047;28;20455;-60
2021/06/06 09:52:14;;;;;;;9.13;8.63;;;26.50;51.10;;;;;;4979281;28;20497;-61
2021/06/06 09:54:55;;;;;;;8.83;8.23;;;25.90;54.10;;;;;;4969505;28;20497;-62
2021/06/06 09:57:34;;;;;;;9.43;8.63;;;25.60;55.00;;;;;;4974670;28;20552;-61
2021/06/06 10:00:04;;;;;;;8.63;8.13;;;25.90;54.40;;;;;;4979488;28;20445;-63
2021/06/06 10:02:37;;;;;;;9.20;8.70;;;26.20;54.00;;;;;;4978868;28;20440;-62
2021/06/06 10:05:15;;;;;;;9.03;8.33;;;26.00;53.40;;;;;;4978505;28;20441;-61
2021/06/06 10:07:56;;;;;;;8.40;7.90;;;26.10;53.70;;;;;;4976848;28;20729;-61
2021/06/06 10:10:33;;;;;;;8.60;8.00;;;25.70;56.00;;;;;;4978939;28;20525;-63
2021/06/06 10:13:05;;;;;;;8.60;8.13;;;26.00;54.20;;;;;;4978639;28;20707;-62
2021/06/06 10:15:52;;;;;;;9.50;8.90;;;26.30;53.80;;;;;;4976732;28;20480;-62
2021/06/06 10:18:29;;;;;;;8.67;8.00;;;26.70;53.80;;;;;;4978761;28;20491;-62
2021/06/06 10:21:16;;;;;;;8.57;8.10;;;26.80;52.10;;;;;;4977866;28;20791;-62
2021/06/06 10:23:50;;;;;;;7.83;7.43;;;26.60;52.90;;;;;;4968121;28;20445;-61
2021/06/06 10:26:35;;;;;;;8.13;7.73;;;26.60;53.10;;;;;;4975113;28;20450;-62
2021/06/06 10:29:09;;;;;;;7.20;6.90;;;26.50;52.40;;;;;;4976075;28;20445;-61
2021/06/06 10:31:40;;;;;;;7.83;7.43;;;26.30;52.80;;;;;;4999208;28;20897;-61
2021/06/06 10:34:39;;;;;;;7.40;7.10;;;26.20;52.60;;;;;;4974342;28;20734;-62
2021/06/06 10:37:07;;;;;;;8.43;7.80;;;26.30;52.10;;;;;;4972986;28;20473;-63
2021/06/06 10:39:51;;;;;;;8.13;7.67;;;26.30;51.60;;;;;;4976712;28;20752;-62
2021/06/06 10:42:43;;;;;;;7.87;7.47;;;26.10;51.90;;;;;;4976714;28;20496;-62
2021/06/06 10:45:31;;;;;;;8.03;7.57;;;26.30;53.00;;;;;;4977965;28;20457;-62
2021/06/06 10:48:02;;;;;;;7.93;7.53;;;26.60;53.20;;;;;;4976941;28;20449;-61
2021/06/06 10:50:46;;;;;;;8.23;7.70;;;27.10;53.30;;;;;;4977038;28;20528;-61
2021/06/06 10:53:18;;;;;;;7.80;7.40;;;27.60;51.70;;;;;;5009019;28;20462;-62
2021/06/06 10:56:07;;;;;;;7.97;7.57;;;27.70;49.40;;;;;;4973545;28;20506;-63
2021/06/06 10:58:49;;;;;;;7.83;7.33;;;27.30;49.30;;;;;;4974118;28;20627;-60
2021/06/06 11:01:19;;;;;;;7.77;7.37;;;27.10;50.00;;;;;;4978411;28;20446;-61
2021/06/06 11:03:50;;;;;;;7.27;6.87;;;27.00;50.30;;;;;;4975000;28;20553;-62
2021/06/06 11:06:31;;;;;;;7.23;6.83;;;27.10;50.70;;;;;;4977183;28;20449;-62
2021/06/06 11:09:00;;;;;;;7.43;6.93;;;27.20;50.10;;;;;;4977476;28;20794;-61
2021/06/06 11:11:37;;;;;;;7.63;7.17;;;26.70;49.40;;;;;;4970277;28;20597;-61
2021/06/06 11:14:13;;;;;;;7.10;6.60;;;26.20;50.50;;;;;;4973747;28;20484;-63
2021/06/06 11:16:49;;;;;;;7.20;6.90;;;26.10;48.10;;;;;;5010265;28;20451;-61
2021/06/06 11:19:19;;;;;;;7.90;7.50;;;26.40;50.50;;;;;;4971688;28;20916;-62
2021/06/06 11:21:53;;;;;;;7.33;7.03;;;26.50;49.70;;;;;;4977438;28;20450;-62
2021/06/06 11:24:44;;;;;;;7.47;7.07;;;26.30;49.70;;;;;;4977065;28;20456;-62
2021/06/06 11:27:11;;;;;;;6.83;6.53;;;26.20;50.20;;;;;;4972164;28;20507;-61
2021/06/06 11:29:44;;;;;;;7.10;6.70;;;26.30;50.50;;;;;;4975527;28;20857;-61
2021/06/06 11:32:11;;;;;;;7.67;7.17;;;26.80;49.70;;;;;;4968346;28;20820;-62
2021/06/06 11:34:41;;;;;;;6.80;6.40;;;27.10;47.40;;;;;;4965155;28;20722;-61
2021/06/06 11:37:11;;;;;;;6.87;6.37;;;27.30;47.70;;;;;;4965097;28;20476;-61
2021/06/06 11:39:47;;;;;;;6.63;6.27;;;27.30;46.40;;;;;;4965108;28;20422;-62
2021/06/06 11:42:29;;;;;;;6.43;6.10;;;27.10;46.60;;;;;;4976039;28;20528;-61
2021/06/06 11:45:04;;;;;;;6.40;6.10;;;26.90;45.90;;;;;;4977008;28;20478;-62
2021/06/06 11:47:59;;;;;;;7.07;6.73;;;27.00;46.30;;;;;;4974072;28;20819;-62
2021/06/06 11:50:38;;;;;;;6.13;5.83;;;26.60;45.40;;;;;;4968411;28;20661;-61
2021/06/06 11:53:14;;;;;;;6.27;5.90;;;26.50;46.00;;;;;;4975038;28;20470;-63
2021/06/06 11:55:47;;;;;;;6.33;6.03;;;26.60;44.30;;;;;;4974701;28;20445;-59
2021/06/06 11:58:25;;;;;;;6.27;5.97;;;26.50;43.90;;;;;;4976903;28;20489;-61
2021/06/06 12:00:55;;;;;;;6.63;6.23;;;26.60;44.30;;;;;;4977456;28;20461;-62
2021/06/06 12:03:35;;;;;;;6.23;5.93;;;26.60;44.80;;;;;;4976652;28;20644;-62
2021/06/06 12:06:03;;;;;;;5.80;5.50;;;26.30;45.60;;;;;;4966239;28;20885;-62
2021/06/06 12:08:47;;;;;;;6.00;5.70;;;25.80;45.20;;;;;;4974567;28;20453;-60
2021/06/06 12:11:20;;;;;;;6.23;5.93;;;25.80;45.10;;;;;;4974700;28;20443;-63
2021/06/06 12:13:50;;;;;;;6.13;5.83;;;25.70;45.40;;;;;;4977579;28;20746;-62
2021/06/06 12:16:20;;;;;;;6.03;5.63;;;25.60;45.20;;;;;;4970939;28;20505;-60
2021/06/06 12:19:04;;;;;;;5.90;5.70;;;25.30;45.20;;;;;;4976081;28;20569;-62
2021/06/06 12:21:36;;;;;;;6.63;6.30;;;25.40;45.10;;;;;;4974357;28;20785;-61
2021/06/06 12:24:27;;;;;;;6.37;5.67;;;25.50;45.40;;;;;;4977175;28;20507;-61
2021/06/06 12:27:05;;;;;;;5.97;5.67;;;25.60;43.90;;;;;;4973956;28;20456;-60
2021/06/06 12:29:38;;;;;;;5.93;5.70;;;25.90;44.30;;;;;;4973658;28;20461;-60
2021/06/06 12:32:27;;;;;;;6.40;6.00;;;26.30;45.10;;;;;;4975540;28;20448;-61
2021/06/06 12:34:55;;;;;;;6.50;6.20;;;26.60;45.50;;;;;;4976641;28;20438;-62
2021/06/06 12:37:26;;;;;;;5.63;5.20;;;26.60;41.80;;;;;;4966083;28;20511;-60
2021/06/06 12:39:56;;;;;;;6.00;5.77;;;26.50;41.80;;;;;;4962442;28;20543;-61
2021/06/06 12:42:24;;;;;;;6.20;5.90;;;26.60;39.30;;;;;;4971158;28;20807;-63
2021/06/06 12:44:55;;;;;;;6.43;6.03;;;26.50;41.50;;;;;;4975800;28;20449;-61
2021/06/06 12:47:30;;;;;;;5.70;5.43;;;26.40;42.30;;;;;;4973241;28;20445;-62
2021/06/06 12:50:14;;;;;;;7.47;7.17;;;26.40;43.50;;;;;;4975073;28;20516;-62
2021/06/06 12:52:46;;;;;;;6.00;5.80;;;26.70;43.90;;;;;;4974339;28;20443;-62
2021/06/06 12:55:38;;;;;;;6.70;6.30;;;26.70;43.30;;;;;;4974257;28;20511;-62
2021/06/06 12:58:24;;;;;;;6.30;6.00;;;26.80;43.60;;;;;;4973249;28;20536;-62
2021/06/06 13:00:55;;;;;;;6.30;6.00;;;26.90;43.60;;;;;;5006171;28;20544;-61
2021/06/06 13:03:35;;;;;;;6.37;6.07;;;26.90;44.00;;;;;;4970367;28;20654;-62
2021/06/06 13:06:24;;;;;;;6.30;5.90;;;26.90;44.00;;;;;;4972299;28;20454;-61
2021/06/06 13:08:53;;;;;;;6.00;5.70;;;26.80;44.70;;;;;;4976533;28;20461;-61
2021/06/06 13:11:23;;;;;;;5.57;5.33;;;26.90;43.30;;;;;;4968941;28;20824;-61